KCUL

Details ICAO KCUL
Name CARMI MUNI
Region United States
Timezone America/Chicago (UTC-5.0)
Plans Departing 1
Arriving 1
Stats Elevation 388 ft / 118 m (AMSL)
Location 38.089487° -88.123059°
Runways 1
Magnetic Variation 3.062° W
Sunrise 2018-05-22 10:38:01 UTC / 2018-05-22 05:38:01 Local
Sunset 2018-05-23 01:03:12 UTC / 2018-05-22 20:03:12 Local
Advertisement - Login to hide

Runways

ID Width Length Bearing (true) Bearing (mag) Surface Threshold Offset Overrun Length
18 75 ft / 23 m 4,003 ft / 1,220 m 180.22° 183.28° Asphalt 0 ft / 0 m 0 ft / 0 m
36 75 ft / 23 m 4,003 ft / 1,220 m 0.22° 3.28° Asphalt 0 ft / 0 m 0 ft / 0 m

Map

Weather


0- 5 10 15 20 25 30 35+ Temperature / ° C

Clouds and Precipitation
Forecast for 2018-05-22 12:00 UTC. Updated an hour ago

Ground ~20,000 ft ~40,000 ft Winds

METAR

KCUL 221215Z AUTO 18004KT 3SM BR BKN001 OVC020 21/21 A3004 RMK AO2 T02120212

TAF

Not found

Frequencies

Unicom 122.80 MHz CTAF/UNICOM
Approach 127.35 MHz EVANSVILLE APP/DEP
Warning: Do not use this data for real-world aviation or navigation. No guarantee of current accuracy is given.